sensor_id;sensor_type;location;lat;lon;timestamp;P1;durP1;ratioP1;P2;durP2;ratioP2
50954;SDS011;36966;48.064;-0.792;2022-12-18T00:02:02;18.98;;;10.10;;
50954;SDS011;36966;48.064;-0.792;2022-12-18T00:04:23;18.70;;;11.02;;
50954;SDS011;36966;48.064;-0.792;2022-12-18T00:06:43;17.58;;;10.18;;
50954;SDS011;36966;48.064;-0.792;2022-12-18T00:09:03;19.50;;;10.90;;
50954;SDS011;36966;48.064;-0.792;2022-12-18T00:11:23;18.70;;;10.02;;
50954;SDS011;36966;48.064;-0.792;2022-12-18T00:13:44;21.48;;;11.50;;
50954;SDS011;36966;48.064;-0.792;2022-12-18T00:16:26;20.52;;;11.35;;
50954;SDS011;36966;48.064;-0.792;2022-12-18T00:18:45;19.20;;;10.43;;
50954;SDS011;36966;48.064;-0.792;2022-12-18T00:21:05;18.17;;;10.43;;
50954;SDS011;36966;48.064;-0.792;2022-12-18T00:23:28;20.40;;;10.25;;
50954;SDS011;36966;48.064;-0.792;2022-12-18T00:25:48;20.27;;;10.75;;
50954;SDS011;36966;48.064;-0.792;2022-12-18T00:28:07;18.27;;;10.15;;
50954;SDS011;36966;48.064;-0.792;2022-12-18T00:30:26;21.50;;;10.65;;
50954;SDS011;36966;48.064;-0.792;2022-12-18T00:32:46;19.80;;;11.85;;
50954;SDS011;36966;48.064;-0.792;2022-12-18T00:35:05;21.92;;;11.13;;
50954;SDS011;36966;48.064;-0.792;2022-12-18T00:37:25;18.80;;;11.55;;
50954;SDS011;36966;48.064;-0.792;2022-12-18T00:39:44;21.65;;;11.32;;
50954;SDS011;36966;48.064;-0.792;2022-12-18T00:42:03;21.27;;;10.95;;
50954;SDS011;36966;48.064;-0.792;2022-12-18T00:44:41;19.00;;;10.80;;
50954;SDS011;36966;48.064;-0.792;2022-12-18T00:47:01;18.15;;;9.82;;
50954;SDS011;36966;48.064;-0.792;2022-12-18T00:49:20;19.75;;;10.82;;
50954;SDS011;36966;48.064;-0.792;2022-12-18T00:51:39;23.90;;;11.70;;
50954;SDS011;36966;48.064;-0.792;2022-12-18T00:53:58;19.20;;;11.07;;
50954;SDS011;36966;48.064;-0.792;2022-12-18T00:56:18;23.52;;;11.82;;
50954;SDS011;36966;48.064;-0.792;2022-12-18T00:58:37;20.02;;;11.25;;
50954;SDS011;36966;48.064;-0.792;2022-12-18T01:00:56;22.85;;;10.27;;
50954;SDS011;36966;48.064;-0.792;2022-12-18T01:03:16;20.98;;;11.90;;
50954;SDS011;36966;48.064;-0.792;2022-12-18T01:05:38;20.80;;;11.65;;
50954;SDS011;36966;48.064;-0.792;2022-12-18T01:07:59;18.02;;;10.68;;
50954;SDS011;36966;48.064;-0.792;2022-12-18T01:10:18;19.27;;;11.35;;
50954;SDS011;36966;48.064;-0.792;2022-12-18T01:12:38;20.05;;;10.95;;
50954;SDS011;36966;48.064;-0.792;2022-12-18T01:14:58;19.40;;;11.10;;
50954;SDS011;36966;48.064;-0.792;2022-12-18T01:17:17;21.70;;;10.93;;
50954;SDS011;36966;48.064;-0.792;2022-12-18T01:19:36;21.27;;;11.73;;
50954;SDS011;36966;48.064;-0.792;2022-12-18T01:21:55;22.45;;;10.93;;
50954;SDS011;36966;48.064;-0.792;2022-12-18T01:24:15;21.83;;;10.68;;
50954;SDS011;36966;48.064;-0.792;2022-12-18T01:26:34;20.20;;;10.50;;
50954;SDS011;36966;48.064;-0.792;2022-12-18T01:28:53;29.40;;;11.63;;
50954;SDS011;36966;48.064;-0.792;2022-12-18T01:31:15;21.20;;;12.15;;
50954;SDS011;36966;48.064;-0.792;2022-12-18T01:33:45;20.20;;;11.63;;
50954;SDS011;36966;48.064;-0.792;2022-12-18T01:36:08;20.10;;;10.60;;
50954;SDS011;36966;48.064;-0.792;2022-12-18T01:38:32;20.92;;;10.80;;
50954;SDS011;36966;48.064;-0.792;2022-12-18T01:40:56;18.38;;;10.32;;
50954;SDS011;36966;48.064;-0.792;2022-12-18T01:43:17;17.45;;;9.98;;
50954;SDS011;36966;48.064;-0.792;2022-12-18T01:45:36;21.15;;;11.57;;
50954;SDS011;36966;48.064;-0.792;2022-12-18T01:47:56;22.02;;;10.88;;
50954;SDS011;36966;48.064;-0.792;2022-12-18T01:52:45;21.35;;;10.90;;
50954;SDS011;36966;48.064;-0.792;2022-12-18T01:55:07;23.38;;;11.40;;
50954;SDS011;36966;48.064;-0.792;2022-12-18T01:57:28;20.33;;;10.60;;
50954;SDS011;36966;48.064;-0.792;2022-12-18T01:59:49;19.27;;;10.98;;
50954;SDS011;36966;48.064;-0.792;2022-12-18T02:02:11;20.80;;;10.88;;
50954;SDS011;36966;48.064;-0.792;2022-12-18T02:04:31;20.13;;;10.13;;
50954;SDS011;36966;48.064;-0.792;2022-12-18T02:07:11;20.25;;;11.27;;
50954;SDS011;36966;48.064;-0.792;2022-12-18T02:17:22;19.90;;;11.35;;
50954;SDS011;36966;48.064;-0.792;2022-12-18T02:25:21;21.58;;;10.60;;
50954;SDS011;36966;48.064;-0.792;2022-12-18T02:27:44;23.25;;;10.02;;
50954;SDS011;36966;48.064;-0.792;2022-12-18T02:30:05;20.13;;;10.50;;
50954;SDS011;36966;48.064;-0.792;2022-12-18T02:32:27;22.75;;;10.10;;
50954;SDS011;36966;48.064;-0.792;2022-12-18T02:34:51;21.83;;;10.52;;
50954;SDS011;36966;48.064;-0.792;2022-12-18T02:37:13;18.63;;;9.90;;
50954;SDS011;36966;48.064;-0.792;2022-12-18T02:39:35;18.63;;;10.70;;
50954;SDS011;36966;48.064;-0.792;2022-12-18T02:41:59;16.45;;;9.68;;
50954;SDS011;36966;48.064;-0.792;2022-12-18T02:44:26;18.08;;;10.40;;
50954;SDS011;36966;48.064;-0.792;2022-12-18T02:46:46;23.40;;;11.13;;
50954;SDS011;36966;48.064;-0.792;2022-12-18T03:07:41;18.13;;;10.07;;
50954;SDS011;36966;48.064;-0.792;2022-12-18T03:10:06;18.27;;;10.52;;
50954;SDS011;36966;48.064;-0.792;2022-12-18T03:12:30;19.95;;;10.48;;
50954;SDS011;36966;48.064;-0.792;2022-12-18T03:14:58;18.65;;;10.07;;
50954;SDS011;36966;48.064;-0.792;2022-12-18T03:17:22;25.10;;;11.02;;
50954;SDS011;36966;48.064;-0.792;2022-12-18T03:19:43;19.75;;;10.50;;
50954;SDS011;36966;48.064;-0.792;2022-12-18T03:22:05;18.35;;;10.40;;
50954;SDS011;36966;48.064;-0.792;2022-12-18T03:24:26;21.13;;;10.30;;
50954;SDS011;36966;48.064;-0.792;2022-12-18T03:26:50;19.77;;;9.93;;
50954;SDS011;36966;48.064;-0.792;2022-12-18T03:29:17;22.33;;;10.63;;
50954;SDS011;36966;48.064;-0.792;2022-12-18T03:31:42;18.10;;;9.90;;
50954;SDS011;36966;48.064;-0.792;2022-12-18T03:34:11;21.48;;;9.90;;
50954;SDS011;36966;48.064;-0.792;2022-12-18T03:36:35;18.20;;;9.30;;
50954;SDS011;36966;48.064;-0.792;2022-12-18T03:38:54;21.00;;;10.32;;
50954;SDS011;36966;48.064;-0.792;2022-12-18T03:41:18;20.90;;;9.80;;
50954;SDS011;36966;48.064;-0.792;2022-12-18T03:48:48;19.35;;;9.88;;
50954;SDS011;36966;48.064;-0.792;2022-12-18T03:51:16;25.50;;;10.57;;
50954;SDS011;36966;48.064;-0.792;2022-12-18T03:56:07;20.50;;;10.82;;
50954;SDS011;36966;48.064;-0.792;2022-12-18T03:58:28;18.35;;;10.43;;
50954;SDS011;36966;48.064;-0.792;2022-12-18T04:00:50;18.50;;;10.05;;
50954;SDS011;36966;48.064;-0.792;2022-12-18T04:03:13;20.23;;;10.43;;
50954;SDS011;36966;48.064;-0.792;2022-12-18T04:05:35;20.13;;;9.90;;
50954;SDS011;36966;48.064;-0.792;2022-12-18T04:07:56;18.45;;;9.70;;
50954;SDS011;36966;48.064;-0.792;2022-12-18T04:10:16;17.50;;;9.85;;
50954;SDS011;36966;48.064;-0.792;2022-12-18T04:12:36;18.75;;;10.73;;
50954;SDS011;36966;48.064;-0.792;2022-12-18T04:14:56;20.45;;;10.40;;
50954;SDS011;36966;48.064;-0.792;2022-12-18T04:17:15;20.92;;;10.60;;
50954;SDS011;36966;48.064;-0.792;2022-12-18T04:19:35;18.52;;;9.40;;
50954;SDS011;36966;48.064;-0.792;2022-12-18T04:21:54;19.17;;;10.57;;
50954;SDS011;36966;48.064;-0.792;2022-12-18T04:24:13;18.83;;;10.88;;
50954;SDS011;36966;48.064;-0.792;2022-12-18T04:26:32;18.75;;;10.05;;
50954;SDS011;36966;48.064;-0.792;2022-12-18T04:28:51;17.13;;;9.73;;
50954;SDS011;36966;48.064;-0.792;2022-12-18T04:31:10;17.70;;;8.93;;
50954;SDS011;36966;48.064;-0.792;2022-12-18T04:33:30;18.30;;;9.80;;
50954;SDS011;36966;48.064;-0.792;2022-12-18T04:35:49;21.20;;;10.43;;
50954;SDS011;36966;48.064;-0.792;2022-12-18T04:38:08;20.83;;;9.75;;
50954;SDS011;36966;48.064;-0.792;2022-12-18T04:40:28;20.55;;;10.82;;
50954;SDS011;36966;48.064;-0.792;2022-12-18T04:42:47;19.90;;;9.77;;
50954;SDS011;36966;48.064;-0.792;2022-12-18T04:45:07;18.58;;;9.07;;
50954;SDS011;36966;48.064;-0.792;2022-12-18T04:47:27;21.65;;;10.43;;
50954;SDS011;36966;48.064;-0.792;2022-12-18T04:49:46;21.48;;;10.10;;
50954;SDS011;36966;48.064;-0.792;2022-12-18T04:52:06;23.15;;;10.25;;
50954;SDS011;36966;48.064;-0.792;2022-12-18T04:54:26;18.08;;;10.00;;
50954;SDS011;36966;48.064;-0.792;2022-12-18T04:56:45;19.40;;;9.82;;
50954;SDS011;36966;48.064;-0.792;2022-12-18T04:59:04;19.48;;;10.50;;
50954;SDS011;36966;48.064;-0.792;2022-12-18T05:01:23;19.15;;;10.38;;
50954;SDS011;36966;48.064;-0.792;2022-12-18T05:03:43;23.60;;;10.23;;
50954;SDS011;36966;48.064;-0.792;2022-12-18T05:06:02;17.67;;;10.20;;
50954;SDS011;36966;48.064;-0.792;2022-12-18T05:08:23;21.05;;;10.98;;
50954;SDS011;36966;48.064;-0.792;2022-12-18T05:10:43;18.23;;;10.23;;
50954;SDS011;36966;48.064;-0.792;2022-12-18T05:13:02;18.40;;;9.80;;
50954;SDS011;36966;48.064;-0.792;2022-12-18T05:15:21;18.38;;;9.20;;
50954;SDS011;36966;48.064;-0.792;2022-12-18T05:17:41;20.40;;;10.30;;
50954;SDS011;36966;48.064;-0.792;2022-12-18T05:20:00;19.58;;;9.57;;
50954;SDS011;36966;48.064;-0.792;2022-12-18T05:22:19;19.27;;;10.35;;
50954;SDS011;36966;48.064;-0.792;2022-12-18T05:24:38;19.33;;;10.93;;
50954;SDS011;36966;48.064;-0.792;2022-12-18T05:26:57;18.27;;;10.02;;
50954;SDS011;36966;48.064;-0.792;2022-12-18T05:29:16;18.92;;;9.15;;
50954;SDS011;36966;48.064;-0.792;2022-12-18T05:31:35;18.67;;;8.85;;
50954;SDS011;36966;48.064;-0.792;2022-12-18T05:33:54;17.17;;;9.82;;
50954;SDS011;36966;48.064;-0.792;2022-12-18T05:36:14;19.60;;;9.15;;
50954;SDS011;36966;48.064;-0.792;2022-12-18T05:38:35;16.85;;;9.40;;
50954;SDS011;36966;48.064;-0.792;2022-12-18T05:40:56;21.73;;;10.07;;
50954;SDS011;36966;48.064;-0.792;2022-12-18T05:43:15;18.52;;;10.45;;
50954;SDS011;36966;48.064;-0.792;2022-12-18T05:45:39;19.92;;;9.20;;
50954;SDS011;36966;48.064;-0.792;2022-12-18T05:47:58;17.95;;;9.32;;
50954;SDS011;36966;48.064;-0.792;2022-12-18T05:50:17;21.88;;;9.98;;
50954;SDS011;36966;48.064;-0.792;2022-12-18T05:52:36;17.55;;;9.00;;
50954;SDS011;36966;48.064;-0.792;2022-12-18T05:54:55;15.15;;;9.15;;
50954;SDS011;36966;48.064;-0.792;2022-12-18T05:57:15;20.13;;;11.05;;
50954;SDS011;36966;48.064;-0.792;2022-12-18T05:59:34;18.33;;;9.32;;
50954;SDS011;36966;48.064;-0.792;2022-12-18T06:01:53;20.85;;;11.25;;
50954;SDS011;36966;48.064;-0.792;2022-12-18T06:04:12;19.25;;;10.15;;
50954;SDS011;36966;48.064;-0.792;2022-12-18T06:06:31;15.82;;;9.07;;
50954;SDS011;36966;48.064;-0.792;2022-12-18T06:08:50;19.35;;;10.45;;
50954;SDS011;36966;48.064;-0.792;2022-12-18T06:11:10;20.65;;;10.30;;
50954;SDS011;36966;48.064;-0.792;2022-12-18T06:13:30;20.42;;;10.25;;
50954;SDS011;36966;48.064;-0.792;2022-12-18T06:15:49;18.67;;;10.15;;
50954;SDS011;36966;48.064;-0.792;2022-12-18T06:18:08;16.25;;;9.88;;
50954;SDS011;36966;48.064;-0.792;2022-12-18T06:20:27;22.13;;;9.75;;
50954;SDS011;36966;48.064;-0.792;2022-12-18T06:22:47;17.23;;;8.85;;
50954;SDS011;36966;48.064;-0.792;2022-12-18T06:25:06;17.92;;;10.35;;
50954;SDS011;36966;48.064;-0.792;2022-12-18T06:27:26;17.90;;;9.68;;
50954;SDS011;36966;48.064;-0.792;2022-12-18T06:29:45;18.65;;;9.88;;
50954;SDS011;36966;48.064;-0.792;2022-12-18T06:32:04;16.95;;;9.48;;
50954;SDS011;36966;48.064;-0.792;2022-12-18T06:34:24;18.73;;;10.15;;
50954;SDS011;36966;48.064;-0.792;2022-12-18T06:36:43;17.60;;;9.35;;
50954;SDS011;36966;48.064;-0.792;2022-12-18T06:39:02;19.58;;;9.88;;
50954;SDS011;36966;48.064;-0.792;2022-12-18T06:41:21;19.27;;;8.90;;
50954;SDS011;36966;48.064;-0.792;2022-12-18T06:43:40;15.55;;;9.43;;
50954;SDS011;36966;48.064;-0.792;2022-12-18T06:46:00;30.65;;;13.38;;
50954;SDS011;36966;48.064;-0.792;2022-12-18T06:48:20;22.30;;;10.85;;
50954;SDS011;36966;48.064;-0.792;2022-12-18T06:50:42;30.30;;;15.07;;
50954;SDS011;36966;48.064;-0.792;2022-12-18T06:53:01;21.25;;;11.00;;
50954;SDS011;36966;48.064;-0.792;2022-12-18T06:55:20;21.92;;;11.27;;
50954;SDS011;36966;48.064;-0.792;2022-12-18T06:57:39;20.30;;;9.85;;
50954;SDS011;36966;48.064;-0.792;2022-12-18T06:59:59;18.13;;;9.63;;
50954;SDS011;36966;48.064;-0.792;2022-12-18T07:02:18;21.48;;;10.70;;
50954;SDS011;36966;48.064;-0.792;2022-12-18T07:04:37;19.60;;;10.73;;
50954;SDS011;36966;48.064;-0.792;2022-12-18T07:06:56;21.35;;;10.88;;
50954;SDS011;36966;48.064;-0.792;2022-12-18T07:09:16;24.67;;;11.30;;
50954;SDS011;36966;48.064;-0.792;2022-12-18T07:11:35;20.33;;;11.20;;
50954;SDS011;36966;48.064;-0.792;2022-12-18T07:13:54;20.13;;;9.68;;
50954;SDS011;36966;48.064;-0.792;2022-12-18T07:16:14;16.95;;;9.73;;
50954;SDS011;36966;48.064;-0.792;2022-12-18T07:18:35;20.25;;;11.32;;
50954;SDS011;36966;48.064;-0.792;2022-12-18T07:20:55;19.73;;;9.70;;
50954;SDS011;36966;48.064;-0.792;2022-12-18T07:23:14;20.55;;;9.35;;
50954;SDS011;36966;48.064;-0.792;2022-12-18T07:25:36;19.92;;;9.43;;
50954;SDS011;36966;48.064;-0.792;2022-12-18T07:27:56;17.48;;;8.88;;
50954;SDS011;36966;48.064;-0.792;2022-12-18T07:30:15;20.55;;;9.80;;
50954;SDS011;36966;48.064;-0.792;2022-12-18T07:32:34;20.10;;;9.05;;
50954;SDS011;36966;48.064;-0.792;2022-12-18T07:34:53;16.92;;;9.38;;
50954;SDS011;36966;48.064;-0.792;2022-12-18T07:37:12;20.50;;;9.45;;
50954;SDS011;36966;48.064;-0.792;2022-12-18T07:39:31;18.50;;;9.25;;
50954;SDS011;36966;48.064;-0.792;2022-12-18T07:41:51;19.30;;;9.85;;
50954;SDS011;36966;48.064;-0.792;2022-12-18T07:44:29;16.80;;;9.77;;
50954;SDS011;36966;48.064;-0.792;2022-12-18T07:46:48;21.60;;;10.40;;
50954;SDS011;36966;48.064;-0.792;2022-12-18T07:49:07;25.05;;;10.02;;
50954;SDS011;36966;48.064;-0.792;2022-12-18T07:51:26;18.73;;;9.45;;
50954;SDS011;36966;48.064;-0.792;2022-12-18T07:53:45;18.65;;;10.68;;
50954;SDS011;36966;48.064;-0.792;2022-12-18T07:56:07;24.27;;;11.13;;
50954;SDS011;36966;48.064;-0.792;2022-12-18T07:58:28;22.60;;;9.57;;
50954;SDS011;36966;48.064;-0.792;2022-12-18T08:00:48;24.27;;;11.65;;
50954;SDS011;36966;48.064;-0.792;2022-12-18T08:03:07;21.88;;;10.18;;
50954;SDS011;36966;48.064;-0.792;2022-12-18T08:05:26;22.63;;;11.30;;
50954;SDS011;36966;48.064;-0.792;2022-12-18T08:07:46;26.52;;;11.73;;
50954;SDS011;36966;48.064;-0.792;2022-12-18T08:10:06;33.15;;;12.68;;
50954;SDS011;36966;48.064;-0.792;2022-12-18T08:12:25;20.23;;;11.43;;
50954;SDS011;36966;48.064;-0.792;2022-12-18T08:14:44;24.48;;;11.80;;
50954;SDS011;36966;48.064;-0.792;2022-12-18T08:17:04;25.05;;;11.45;;
50954;SDS011;36966;48.064;-0.792;2022-12-18T08:19:23;26.60;;;11.43;;
50954;SDS011;36966;48.064;-0.792;2022-12-18T08:21:42;25.83;;;10.48;;
50954;SDS011;36966;48.064;-0.792;2022-12-18T08:24:02;27.17;;;12.18;;
50954;SDS011;36966;48.064;-0.792;2022-12-18T08:26:21;36.63;;;12.43;;
50954;SDS011;36966;48.064;-0.792;2022-12-18T08:28:42;26.30;;;11.57;;
50954;SDS011;36966;48.064;-0.792;2022-12-18T08:31:01;26.10;;;11.68;;
50954;SDS011;36966;48.064;-0.792;2022-12-18T08:33:20;28.00;;;11.52;;
50954;SDS011;36966;48.064;-0.792;2022-12-18T08:35:39;25.67;;;12.07;;
50954;SDS011;36966;48.064;-0.792;2022-12-18T08:37:58;26.55;;;11.90;;
50954;SDS011;36966;48.064;-0.792;2022-12-18T08:40:17;25.48;;;11.95;;
50954;SDS011;36966;48.064;-0.792;2022-12-18T08:42:37;28.73;;;12.05;;
50954;SDS011;36966;48.064;-0.792;2022-12-18T08:45:15;27.52;;;11.63;;
50954;SDS011;36966;48.064;-0.792;2022-12-18T08:47:35;23.73;;;11.60;;
50954;SDS011;36966;48.064;-0.792;2022-12-18T08:49:54;25.80;;;11.27;;
50954;SDS011;36966;48.064;-0.792;2022-12-18T08:52:13;29.05;;;11.70;;
50954;SDS011;36966;48.064;-0.792;2022-12-18T08:54:33;27.75;;;12.02;;
50954;SDS011;36966;48.064;-0.792;2022-12-18T08:56:52;26.60;;;11.98;;
50954;SDS011;36966;48.064;-0.792;2022-12-18T08:59:11;23.88;;;11.50;;
50954;SDS011;36966;48.064;-0.792;2022-12-18T09:01:31;29.77;;;10.70;;
50954;SDS011;36966;48.064;-0.792;2022-12-18T09:03:50;24.98;;;11.63;;
50954;SDS011;36966;48.064;-0.792;2022-12-18T09:06:12;27.27;;;12.13;;
50954;SDS011;36966;48.064;-0.792;2022-12-18T09:08:34;22.55;;;11.45;;
50954;SDS011;36966;48.064;-0.792;2022-12-18T09:10:54;26.73;;;11.45;;
50954;SDS011;36966;48.064;-0.792;2022-12-18T09:13:14;27.17;;;10.82;;
50954;SDS011;36966;48.064;-0.792;2022-12-18T09:15:34;24.52;;;11.50;;
50954;SDS011;36966;48.064;-0.792;2022-12-18T09:17:53;29.75;;;13.45;;
50954;SDS011;36966;48.064;-0.792;2022-12-18T09:20:12;30.52;;;13.23;;
50954;SDS011;36966;48.064;-0.792;2022-12-18T09:22:32;27.92;;;12.85;;
50954;SDS011;36966;48.064;-0.792;2022-12-18T09:24:51;28.95;;;13.95;;
50954;SDS011;36966;48.064;-0.792;2022-12-18T09:27:10;25.98;;;11.30;;
50954;SDS011;36966;48.064;-0.792;2022-12-18T09:29:29;21.77;;;11.50;;
50954;SDS011;36966;48.064;-0.792;2022-12-18T09:31:49;27.02;;;12.65;;
50954;SDS011;36966;48.064;-0.792;2022-12-18T09:34:09;23.00;;;11.60;;
50954;SDS011;36966;48.064;-0.792;2022-12-18T09:36:29;20.08;;;10.30;;
50954;SDS011;36966;48.064;-0.792;2022-12-18T09:38:48;26.30;;;10.80;;
50954;SDS011;36966;48.064;-0.792;2022-12-18T09:44:05;22.63;;;10.55;;
50954;SDS011;36966;48.064;-0.792;2022-12-18T09:47:08;28.55;;;10.88;;
50954;SDS011;36966;48.064;-0.792;2022-12-18T09:49:26;24.08;;;12.35;;
50954;SDS011;36966;48.064;-0.792;2022-12-18T09:51:50;22.38;;;10.73;;
50954;SDS011;36966;48.064;-0.792;2022-12-18T09:54:25;24.67;;;10.10;;
50954;SDS011;36966;48.064;-0.792;2022-12-18T09:56:50;23.88;;;10.82;;
50954;SDS011;36966;48.064;-0.792;2022-12-18T10:01:51;18.02;;;9.65;;
50954;SDS011;36966;48.064;-0.792;2022-12-18T10:04:10;22.15;;;11.23;;
50954;SDS011;36966;48.064;-0.792;2022-12-18T10:19:43;15.18;;;8.90;;
50954;SDS011;36966;48.064;-0.792;2022-12-18T10:22:15;17.77;;;9.98;;
50954;SDS011;36966;48.064;-0.792;2022-12-18T10:27:27;18.90;;;9.13;;
50954;SDS011;36966;48.064;-0.792;2022-12-18T10:29:47;19.85;;;8.90;;
50954;SDS011;36966;48.064;-0.792;2022-12-18T10:32:07;17.55;;;9.98;;
50954;SDS011;36966;48.064;-0.792;2022-12-18T10:34:34;15.48;;;8.02;;
50954;SDS011;36966;48.064;-0.792;2022-12-18T10:36:53;14.88;;;7.55;;
50954;SDS011;36966;48.064;-0.792;2022-12-18T10:39:23;15.23;;;8.35;;
50954;SDS011;36966;48.064;-0.792;2022-12-18T10:41:46;17.55;;;8.27;;
50954;SDS011;36966;48.064;-0.792;2022-12-18T10:44:22;19.60;;;10.13;;
50954;SDS011;36966;48.064;-0.792;2022-12-18T10:46:43;17.35;;;8.80;;
50954;SDS011;36966;48.064;-0.792;2022-12-18T10:49:04;17.00;;;9.77;;
50954;SDS011;36966;48.064;-0.792;2022-12-18T10:51:25;19.52;;;10.32;;
50954;SDS011;36966;48.064;-0.792;2022-12-18T10:53:56;19.38;;;10.32;;
50954;SDS011;36966;48.064;-0.792;2022-12-18T10:56:35;14.65;;;8.23;;
50954;SDS011;36966;48.064;-0.792;2022-12-18T10:58:56;15.43;;;8.45;;
50954;SDS011;36966;48.064;-0.792;2022-12-18T11:01:18;16.10;;;8.50;;
50954;SDS011;36966;48.064;-0.792;2022-12-18T11:06:18;18.00;;;8.98;;
50954;SDS011;36966;48.064;-0.792;2022-12-18T11:08:42;16.80;;;8.93;;
50954;SDS011;36966;48.064;-0.792;2022-12-18T11:11:02;17.73;;;9.13;;
50954;SDS011;36966;48.064;-0.792;2022-12-18T11:13:35;14.75;;;8.82;;
50954;SDS011;36966;48.064;-0.792;2022-12-18T11:15:54;20.60;;;11.20;;
50954;SDS011;36966;48.064;-0.792;2022-12-18T11:18:17;18.02;;;10.85;;
50954;SDS011;36966;48.064;-0.792;2022-12-18T11:23:04;18.08;;;8.73;;
50954;SDS011;36966;48.064;-0.792;2022-12-18T11:25:32;17.73;;;8.80;;
50954;SDS011;36966;48.064;-0.792;2022-12-18T11:27:53;21.42;;;8.27;;
50954;SDS011;36966;48.064;-0.792;2022-12-18T11:30:25;17.38;;;9.45;;
50954;SDS011;36966;48.064;-0.792;2022-12-18T11:32:51;19.02;;;9.57;;
50954;SDS011;36966;48.064;-0.792;2022-12-18T11:38:27;15.73;;;8.43;;
50954;SDS011;36966;48.064;-0.792;2022-12-18T11:40:59;19.52;;;9.93;;
50954;SDS011;36966;48.064;-0.792;2022-12-18T11:43:29;15.10;;;7.55;;
50954;SDS011;36966;48.064;-0.792;2022-12-18T11:45:55;19.95;;;9.63;;
50954;SDS011;36966;48.064;-0.792;2022-12-18T11:48:47;18.15;;;9.18;;
50954;SDS011;36966;48.064;-0.792;2022-12-18T11:51:19;17.55;;;9.90;;
50954;SDS011;36966;48.064;-0.792;2022-12-18T11:53:48;24.33;;;10.90;;
50954;SDS011;36966;48.064;-0.792;2022-12-18T12:01:53;17.88;;;10.25;;
50954;SDS011;36966;48.064;-0.792;2022-12-18T12:04:32;16.77;;;9.10;;
50954;SDS011;36966;48.064;-0.792;2022-12-18T12:07:25;16.50;;;9.55;;
50954;SDS011;36966;48.064;-0.792;2022-12-18T12:18:01;20.90;;;9.82;;
50954;SDS011;36966;48.064;-0.792;2022-12-18T12:20:43;17.48;;;8.85;;
50954;SDS011;36966;48.064;-0.792;2022-12-18T12:23:13;15.15;;;9.30;;
50954;SDS011;36966;48.064;-0.792;2022-12-18T12:39:02;17.65;;;9.18;;
50954;SDS011;36966;48.064;-0.792;2022-12-18T12:41:27;18.58;;;11.25;;
50954;SDS011;36966;48.064;-0.792;2022-12-18T12:44:13;21.83;;;11.18;;
50954;SDS011;36966;48.064;-0.792;2022-12-18T12:46:38;19.90;;;10.57;;
50954;SDS011;36966;48.064;-0.792;2022-12-18T12:49:01;18.63;;;9.73;;
50954;SDS011;36966;48.064;-0.792;2022-12-18T12:51:24;13.65;;;8.45;;
50954;SDS011;36966;48.064;-0.792;2022-12-18T12:53:48;22.38;;;10.60;;
50954;SDS011;36966;48.064;-0.792;2022-12-18T12:56:09;23.10;;;11.60;;
50954;SDS011;36966;48.064;-0.792;2022-12-18T13:01:23;16.58;;;8.95;;
50954;SDS011;36966;48.064;-0.792;2022-12-18T13:03:55;21.35;;;11.57;;
50954;SDS011;36966;48.064;-0.792;2022-12-18T13:06:40;18.00;;;10.35;;
50954;SDS011;36966;48.064;-0.792;2022-12-18T13:09:02;18.48;;;9.90;;
50954;SDS011;36966;48.064;-0.792;2022-12-18T13:11:39;20.50;;;9.18;;
50954;SDS011;36966;48.064;-0.792;2022-12-18T13:14:27;19.20;;;10.25;;
50954;SDS011;36966;48.064;-0.792;2022-12-18T13:19:32;19.20;;;9.35;;
50954;SDS011;36966;48.064;-0.792;2022-12-18T13:21:52;28.50;;;11.98;;
50954;SDS011;36966;48.064;-0.792;2022-12-18T13:24:15;25.35;;;14.23;;
50954;SDS011;36966;48.064;-0.792;2022-12-18T13:26:41;26.48;;;14.68;;
50954;SDS011;36966;48.064;-0.792;2022-12-18T13:29:01;22.85;;;12.38;;
50954;SDS011;36966;48.064;-0.792;2022-12-18T13:36:32;22.13;;;12.65;;
50954;SDS011;36966;48.064;-0.792;2022-12-18T13:41:36;20.90;;;12.50;;
50954;SDS011;36966;48.064;-0.792;2022-12-18T13:43:56;21.17;;;10.23;;
50954;SDS011;36966;48.064;-0.792;2022-12-18T13:46:44;16.73;;;10.18;;
50954;SDS011;36966;48.064;-0.792;2022-12-18T13:49:20;24.75;;;12.88;;
50954;SDS011;36966;48.064;-0.792;2022-12-18T13:51:44;20.05;;;11.45;;
50954;SDS011;36966;48.064;-0.792;2022-12-18T13:56:48;19.40;;;10.55;;
50954;SDS011;36966;48.064;-0.792;2022-12-18T14:01:30;18.55;;;9.75;;
50954;SDS011;36966;48.064;-0.792;2022-12-18T14:03:49;38.85;;;15.45;;
50954;SDS011;36966;48.064;-0.792;2022-12-18T14:06:10;34.92;;;13.93;;
50954;SDS011;36966;48.064;-0.792;2022-12-18T14:08:41;45.28;;;19.50;;
50954;SDS011;36966;48.064;-0.792;2022-12-18T14:11:03;21.23;;;10.40;;
50954;SDS011;36966;48.064;-0.792;2022-12-18T14:13:26;15.88;;;8.07;;
50954;SDS011;36966;48.064;-0.792;2022-12-18T14:18:24;17.63;;;8.38;;
50954;SDS011;36966;48.064;-0.792;2022-12-18T14:20:44;14.75;;;7.60;;
50954;SDS011;36966;48.064;-0.792;2022-12-18T14:23:04;16.45;;;8.55;;
50954;SDS011;36966;48.064;-0.792;2022-12-18T14:25:24;17.27;;;8.98;;
50954;SDS011;36966;48.064;-0.792;2022-12-18T14:27:50;17.33;;;8.82;;
50954;SDS011;36966;48.064;-0.792;2022-12-18T14:30:31;14.77;;;7.85;;
50954;SDS011;36966;48.064;-0.792;2022-12-18T14:35:28;19.88;;;8.38;;
50954;SDS011;36966;48.064;-0.792;2022-12-18T14:37:47;15.07;;;8.25;;
50954;SDS011;36966;48.064;-0.792;2022-12-18T14:40:11;15.20;;;8.23;;
50954;SDS011;36966;48.064;-0.792;2022-12-18T14:42:32;12.55;;;7.07;;
50954;SDS011;36966;48.064;-0.792;2022-12-18T14:44:52;13.55;;;7.93;;
50954;SDS011;36966;48.064;-0.792;2022-12-18T14:47:31;16.27;;;8.77;;
50954;SDS011;36966;48.064;-0.792;2022-12-18T14:49:50;11.93;;;6.80;;
50954;SDS011;36966;48.064;-0.792;2022-12-18T14:52:21;14.80;;;6.80;;
50954;SDS011;36966;48.064;-0.792;2022-12-18T14:54:45;13.40;;;6.93;;
50954;SDS011;36966;48.064;-0.792;2022-12-18T14:57:13;20.33;;;7.43;;
50954;SDS011;36966;48.064;-0.792;2022-12-18T14:59:43;13.80;;;7.40;;
50954;SDS011;36966;48.064;-0.792;2022-12-18T15:04:38;16.40;;;7.45;;
50954;SDS011;36966;48.064;-0.792;2022-12-18T15:09:34;11.68;;;7.05;;
50954;SDS011;36966;48.064;-0.792;2022-12-18T15:11:55;14.07;;;7.57;;
50954;SDS011;36966;48.064;-0.792;2022-12-18T15:16:59;15.02;;;7.57;;
50954;SDS011;36966;48.064;-0.792;2022-12-18T15:19:20;14.18;;;7.75;;
50954;SDS011;36966;48.064;-0.792;2022-12-18T15:24:03;13.65;;;6.28;;
50954;SDS011;36966;48.064;-0.792;2022-12-18T15:26:22;12.50;;;6.57;;
50954;SDS011;36966;48.064;-0.792;2022-12-18T15:28:55;12.38;;;5.32;;
50954;SDS011;36966;48.064;-0.792;2022-12-18T15:33:36;13.43;;;4.25;;
50954;SDS011;36966;48.064;-0.792;2022-12-18T15:36:01;9.02;;;5.20;;
50954;SDS011;36966;48.064;-0.792;2022-12-18T15:38:23;13.65;;;6.38;;
50954;SDS011;36966;48.064;-0.792;2022-12-18T15:40:42;13.27;;;6.07;;
50954;SDS011;36966;48.064;-0.792;2022-12-18T15:43:01;9.95;;;4.90;;
50954;SDS011;36966;48.064;-0.792;2022-12-18T15:45:42;10.82;;;5.28;;
50954;SDS011;36966;48.064;-0.792;2022-12-18T15:48:01;9.38;;;5.15;;
50954;SDS011;36966;48.064;-0.792;2022-12-18T15:50:20;10.85;;;4.82;;
50954;SDS011;36966;48.064;-0.792;2022-12-18T15:52:41;8.38;;;4.53;;
50954;SDS011;36966;48.064;-0.792;2022-12-18T15:55:02;10.43;;;4.97;;
50954;SDS011;36966;48.064;-0.792;2022-12-18T15:57:42;11.25;;;5.63;;
50954;SDS011;36966;48.064;-0.792;2022-12-18T16:00:02;7.50;;;4.40;;
50954;SDS011;36966;48.064;-0.792;2022-12-18T16:02:22;11.93;;;5.13;;